Strona główna
METAR-TAF:

METAR-TAF

Lotnisko :

Port lotniczy Doncaster/Sheffield

Doncaster, Anglia

Szerokość geograficzna: 53-29N, Długość geograficzna: 001-00W, wysokość: 17 m

Aktualna obserwacja pogody

Raport powstał 17 minut temu, godzina 05:50 UTC
Wiatr 6 kt od północno-północny zachód
Temperatura 11°C
Wilgotność 87%
Ciśnienie 1027 hPa
Widzialność 10 km lub więcej
Brak chmur poniżej 1500 m i brak chmur cumulonimbus

METAR: EGCN 010550Z 34006KT CAVOK 11/09 Q1027

czas: 07:07 (06:07 UTC)

Prognoza

Raport powstał 1 godzina i 7 minut temu, godzina 05:00 UTC
Prognoza ważna od 01 godzina 06 UTC do 02 godzina 06 UTC
Wiatr 5 kt od północno-północny zachód
Widzialność 10 km lub więcej
Brak chmur poniżej 1500 m i brak chmur cumulonimbus
Stopniowe zmiany
od 01 godzina 09 UTC do 01 godzina 12 UTC
Wiatr 10 kt od wschód

TAF: EGCN 010500Z 0106/0206 33005KT CAVOK BECMG 0109/0112 10010KT

Obserwacja i prognoza pogody dla ponad 4000 lotnisk (raport METAR i TAF).

Dostępne stacje oznaczono żółtymi i czerwonymi punktami na mapie.

Najedź kursorem aby zobaczyć nazwę stacji.

Kliknij aby zobaczyć obserwacje i prognozy pogody.

Aby zmienić mapę: kliknij na zielony przycisk z czarnym krzyżykiem, aby powiększyć; na zielony przycisk z myślnikiem, aby pomniejszyć; na zielone strzałki, aby przejść do map sąsiednich.


METAR-TAF: